Terminal Aerodrome Forecast
Issued by NWS Charleston, WV

Current Version | Previous Version | Graphics & Text | Print | Product List | Glossary On
Versions: 1 2 3 4 5 6 7 8 9 10 11 12 13 14 15 16 17 18 19 20 21 22 23 24 25 26
000
FTUS41 KRLX 281137
TAFCRW
TAF
KCRW 281137Z 2812/2912 VRB03KT 6SM SHRA BR OVC050
     FM281400 25005KT P6SM VCSH BKN015
     FM290500 35004KT 5SM BR BKN008=

USA.gov is the U.S. government's official web portal to all federal, state and local government web resources and services.